createdAt,value
2019-03-26T00:00:36.361Z,77.05
2019-03-26T00:03:13.056Z,77.02
2019-03-26T00:05:47.367Z,76.82
2019-03-26T00:08:19.031Z,76.58
2019-03-26T00:10:52.022Z,76.62
2019-03-26T00:13:25.294Z,76.67
2019-03-26T00:15:56.976Z,76.59
2019-03-26T00:18:32.010Z,76.61
2019-03-26T00:21:03.654Z,76.59
2019-03-26T00:23:35.219Z,76.69
2019-03-26T00:26:09.940Z,77.08
2019-03-26T00:28:41.708Z,77.09
2019-03-26T00:31:13.376Z,77.11
2019-03-26T00:33:45.122Z,77.15
2019-03-26T00:36:16.985Z,77.17
2019-03-26T00:38:48.881Z,77.17
2019-03-26T00:41:20.721Z,77.21
2019-03-26T00:43:56.573Z,77.21
2019-03-26T00:46:28.130Z,77.22
2019-03-26T00:48:59.896Z,77.36
2019-03-26T00:51:31.528Z,77.49
2019-03-26T00:54:03.218Z,77.38
2019-03-26T00:56:35.054Z,77.47
2019-03-26T00:59:06.604Z,77.62
2019-03-26T01:01:38.184Z,77.73
2019-03-26T01:04:09.712Z,77.65
2019-03-26T01:06:41.494Z,77.64
2019-03-26T01:09:13.454Z,77.64
2019-03-26T01:11:45.306Z,77.62
2019-03-26T01:14:16.959Z,77.75
2019-03-26T01:16:48.644Z,77.87
2019-03-26T01:19:20.282Z,77.97
2019-03-26T01:21:51.940Z,78.17
2019-03-26T01:24:23.519Z,78.20
2019-03-26T01:26:55.485Z,77.96
2019-03-26T01:29:26.985Z,77.88
2019-03-26T01:31:58.803Z,77.92
2019-03-26T01:34:45.254Z,78.05
2019-03-26T01:37:06.717Z,78.12
2019-03-26T01:39:38.582Z,78.22
2019-03-26T01:42:10.334Z,78.12
2019-03-26T01:44:41.926Z,78.27
2019-03-26T01:47:13.884Z,78.09
2019-03-26T01:49:45.393Z,78.02
2019-03-26T01:52:17.066Z,78.10
2019-03-26T01:54:48.815Z,78.00
2019-03-26T01:57:20.589Z,77.85
2019-03-26T01:59:52.142Z,77.85
2019-03-26T02:02:23.981Z,77.67
2019-03-26T02:05:00.245Z,77.66
2019-03-26T02:07:29.977Z,77.67
2019-03-26T02:10:01.819Z,77.22
2019-03-26T02:12:33.375Z,77.37
2019-03-26T02:15:07.164Z,77.49
2019-03-26T02:17:38.863Z,77.48
2019-03-26T02:20:10.525Z,77.45
2019-03-26T02:22:42.056Z,77.30
2019-03-26T02:25:13.842Z,77.10
2019-03-26T02:27:45.681Z,76.97
2019-03-26T02:30:17.357Z,76.93
2019-03-26T02:32:49.223Z,77.08
2019-03-26T02:35:20.873Z,77.01
2019-03-26T02:37:52.638Z,77.09
2019-03-26T02:40:24.400Z,77.08
2019-03-26T02:42:57.297Z,76.98
2019-03-26T02:45:28.746Z,77.04
2019-03-26T02:48:00.396Z,77.08
2019-03-26T02:50:32.254Z,76.82
2019-03-26T02:53:03.996Z,76.98
2019-03-26T02:55:35.875Z,77.07
2019-03-26T02:58:08.578Z,77.25
2019-03-26T03:00:39.991Z,77.03
2019-03-26T03:03:11.855Z,76.95
2019-03-26T03:05:43.639Z,76.79
2019-03-26T03:08:15.299Z,76.97
2019-03-26T03:10:46.952Z,76.99
2019-03-26T03:13:19.941Z,76.95
2019-03-26T03:15:51.678Z,77.08
2019-03-26T03:18:23.456Z,77.02
2019-03-26T03:20:54.894Z,76.98
2019-03-26T03:23:26.667Z,77.00
2019-03-26T03:25:58.325Z,77.11
2019-03-26T03:28:29.890Z,77.16
2019-03-26T03:31:01.334Z,77.29
2019-03-26T03:33:33.097Z,77.45
2019-03-26T03:36:04.665Z,77.51
2019-03-26T03:38:36.393Z,77.54
2019-03-26T03:41:08.165Z,77.53
2019-03-26T03:43:39.827Z,77.62
2019-03-26T03:46:11.689Z,77.57
2019-03-26T03:48:43.347Z,77.45
2019-03-26T03:51:15.193Z,77.60
2019-03-26T03:53:46.843Z,77.63
2019-03-26T03:56:18.540Z,77.83
2019-03-26T03:58:50.384Z,77.73
2019-03-26T04:01:22.038Z,77.67
2019-03-26T04:03:53.600Z,77.77
2019-03-26T04:06:25.444Z,77.85
2019-03-26T04:08:57.201Z,77.91
2019-03-26T04:11:28.758Z,77.89
2019-03-26T04:14:00.753Z,77.96
2019-03-26T04:16:32.403Z,77.83
2019-03-26T04:19:04.064Z,77.73
2019-03-26T04:21:35.909Z,77.83
2019-03-26T04:24:07.558Z,77.91
2019-03-26T04:26:39.543Z,77.98
2019-03-26T04:29:11.309Z,77.95
2019-03-26T04:31:42.757Z,78.10
2019-03-26T04:34:14.607Z,77.98
2019-03-26T04:36:46.063Z,77.79
2019-03-26T04:39:17.630Z,77.76
2019-03-26T04:41:49.263Z,77.99
2019-03-26T04:44:20.906Z,78.14
2019-03-26T04:46:52.697Z,78.14
2019-03-26T04:49:24.451Z,77.88
2019-03-26T04:51:56.300Z,77.86
2019-03-26T04:54:28.082Z,77.81
2019-03-26T04:56:59.674Z,77.85
2019-03-26T04:59:31.503Z,77.94
2019-03-26T05:02:03.290Z,77.79
2019-03-26T05:04:35.224Z,77.77
2019-03-26T05:07:06.861Z,77.79
2019-03-26T05:09:38.429Z,77.68
2019-03-26T05:12:10.129Z,77.79
2019-03-26T05:14:42.032Z,77.66
2019-03-26T05:17:13.794Z,77.61
2019-03-26T05:19:45.573Z,77.32
2019-03-26T05:22:24.202Z,77.30
2019-03-26T05:24:50.633Z,77.13
2019-03-26T05:27:23.523Z,77.03
2019-03-26T05:29:55.495Z,76.99
2019-03-26T05:32:26.930Z,76.85
2019-03-26T05:34:58.693Z,76.88
2019-03-26T05:37:30.378Z,76.77
2019-03-26T05:40:02.004Z,76.66
2019-03-26T05:42:33.747Z,76.52
2019-03-26T05:45:07.763Z,76.49
2019-03-26T05:47:39.223Z,76.37
2019-03-26T05:50:10.899Z,75.97
2019-03-26T05:52:42.659Z,75.93
2019-03-26T05:55:14.099Z,75.67
2019-03-26T05:57:45.656Z,75.75
2019-03-26T06:00:20.092Z,75.60
2019-03-26T06:02:51.198Z,75.58
2019-03-26T06:05:22.879Z,75.58
2019-03-26T06:07:54.545Z,75.41
2019-03-26T06:10:26.197Z,75.32
2019-03-26T06:12:57.791Z,75.30
2019-03-26T06:15:29.308Z,74.98
2019-03-26T06:18:01.264Z,74.85
2019-03-26T06:20:32.911Z,74.54
2019-03-26T06:23:04.792Z,74.43
2019-03-26T06:25:36.560Z,74.24
2019-03-26T06:28:08.313Z,73.92
2019-03-26T06:30:39.973Z,73.46
2019-03-26T06:33:11.840Z,72.59
2019-03-26T06:35:43.580Z,72.33
2019-03-26T06:38:15.545Z,71.67
2019-03-26T06:40:47.204Z,71.39
2019-03-26T06:43:18.770Z,71.15
2019-03-26T06:45:50.619Z,71.16
2019-03-26T06:48:22.397Z,70.89
2019-03-26T06:50:54.470Z,70.71
2019-03-26T06:53:26.384Z,70.18
2019-03-26T06:55:57.984Z,69.26
2019-03-26T06:58:29.539Z,69.14
2019-03-26T07:01:01.504Z,68.54
2019-03-26T07:03:33.363Z,68.10
2019-03-26T07:06:04.799Z,67.76
2019-03-26T07:08:36.452Z,67.83
2019-03-26T07:11:08.325Z,67.17
2019-03-26T07:13:40.030Z,66.67
2019-03-26T07:16:11.550Z,65.43
2019-03-26T07:18:43.183Z,64.48
2019-03-26T07:21:15.067Z,64.56
2019-03-26T07:23:46.687Z,64.46
2019-03-26T07:26:18.575Z,64.63
2019-03-26T07:28:50.131Z,64.64
2019-03-26T07:31:21.807Z,63.62
2019-03-26T07:33:53.654Z,63.63
2019-03-26T07:36:25.529Z,62.78
2019-03-26T07:38:57.369Z,62.25
2019-03-26T07:41:29.141Z,62.51
2019-03-26T07:44:00.915Z,62.33
2019-03-26T07:46:32.671Z,62.84
2019-03-26T07:49:04.516Z,63.22
2019-03-26T07:51:36.518Z,63.33
2019-03-26T07:54:08.239Z,63.13
2019-03-26T07:56:41.368Z,62.57
2019-03-26T07:59:13.004Z,62.53
2019-03-26T08:01:44.770Z,63.05
2019-03-26T08:04:16.411Z,63.14
2019-03-26T08:06:48.499Z,63.30
2019-03-26T08:09:20.252Z,62.80
2019-03-26T08:11:51.795Z,62.13
2019-03-26T08:14:23.532Z,62.43
2019-03-26T08:16:55.038Z,62.10
2019-03-26T08:19:26.666Z,61.35
2019-03-26T08:21:58.522Z,61.37
2019-03-26T08:24:30.192Z,61.15
2019-03-26T08:27:01.957Z,60.28
2019-03-26T08:29:35.540Z,58.78
2019-03-26T08:32:07.217Z,58.18
2019-03-26T08:34:38.877Z,57.54
2019-03-26T08:37:10.708Z,56.71
2019-03-26T08:39:42.394Z,56.51
2019-03-26T08:42:14.041Z,56.24
2019-03-26T08:44:45.917Z,56.34
2019-03-26T08:47:17.879Z,55.76
2019-03-26T08:49:49.436Z,56.27
2019-03-26T08:52:21.292Z,56.97
2019-03-26T08:54:52.854Z,57.34
2019-03-26T08:57:24.492Z,58.04
2019-03-26T08:59:57.396Z,58.48
2019-03-26T09:02:29.052Z,58.89
2019-03-26T09:05:00.497Z,58.95
2019-03-26T09:07:32.367Z,59.27
2019-03-26T09:10:04.331Z,60.11
2019-03-26T09:12:35.798Z,60.47
2019-03-26T09:15:09.849Z,60.51
2019-03-26T09:17:44.213Z,60.39
2019-03-26T09:20:15.829Z,61.02
2019-03-26T09:22:47.641Z,60.35
2019-03-26T09:25:19.403Z,59.57
2019-03-26T09:27:52.487Z,59.14
2019-03-26T09:30:24.152Z,58.88
2019-03-26T09:32:56.020Z,57.93
2019-03-26T09:35:27.665Z,57.33
2019-03-26T09:37:59.331Z,56.99
2019-03-26T09:40:31.176Z,56.44
2019-03-26T09:43:02.838Z,56.44
2019-03-26T09:45:34.807Z,56.30
2019-03-26T09:48:06.460Z,55.20
2019-03-26T09:50:38.338Z,54.65
2019-03-26T09:53:10.095Z,54.53
2019-03-26T09:55:41.557Z,55.03
2019-03-26T09:58:13.293Z,54.82
2019-03-26T10:00:45.167Z,54.42
2019-03-26T10:03:16.833Z,54.77
2019-03-26T10:05:48.471Z,54.87
2019-03-26T10:08:20.127Z,55.08
2019-03-26T10:10:52.008Z,54.17
2019-03-26T10:13:23.547Z,54.17
2019-03-26T10:15:55.506Z,54.00
2019-03-26T10:18:27.186Z,53.79
2019-03-26T10:21:00.170Z,53.43
2019-03-26T10:23:31.916Z,52.94
2019-03-26T10:26:04.411Z,52.89
2019-03-26T10:28:35.946Z,52.54
2019-03-26T10:31:07.520Z,52.23
2019-03-26T10:33:39.381Z,52.30
2019-03-26T10:36:10.940Z,51.63
2019-03-26T10:38:42.586Z,51.23
2019-03-26T10:41:14.344Z,50.88
2019-03-26T10:43:46.017Z,51.02
2019-03-26T10:46:17.776Z,49.23
2019-03-26T10:48:49.421Z,49.27
2019-03-26T10:51:20.985Z,49.56
2019-03-26T10:53:52.859Z,49.32
2019-03-26T10:56:24.492Z,47.59
2019-03-26T10:58:56.163Z,47.90
2019-03-26T11:01:27.602Z,47.96
2019-03-26T11:03:59.483Z,48.25
2019-03-26T11:06:31.341Z,48.88
2019-03-26T11:09:04.433Z,48.31
2019-03-26T11:11:36.087Z,47.65
2019-03-26T11:14:07.536Z,47.01
2019-03-26T11:16:39.325Z,47.01
2019-03-26T11:19:10.952Z,47.20
2019-03-26T11:21:42.510Z,46.92
2019-03-26T11:24:15.495Z,46.23
2019-03-26T11:26:47.269Z,47.00
2019-03-26T11:29:18.930Z,47.17
2019-03-26T11:31:50.591Z,47.31
2019-03-26T11:34:22.232Z,46.25
2019-03-26T11:36:54.007Z,45.52
2019-03-26T11:39:32.762Z,46.36
2019-03-26T11:41:58.636Z,46.29
2019-03-26T11:44:30.088Z,45.80
2019-03-26T11:47:02.055Z,45.04
2019-03-26T11:49:33.626Z,44.07
2019-03-26T11:52:05.491Z,44.58
2019-03-26T11:54:37.214Z,44.15
2019-03-26T11:57:08.781Z,44.34
2019-03-26T11:59:40.572Z,44.29
2019-03-26T12:02:12.447Z,43.65
2019-03-26T12:04:44.269Z,43.87
2019-03-26T12:07:15.840Z,43.92
2019-03-26T12:09:47.476Z,44.82
2019-03-26T12:12:19.895Z,44.86
2019-03-26T12:14:57.730Z,44.86
2019-03-26T12:17:31.382Z,44.87
2019-03-26T12:20:03.426Z,44.43
2019-03-26T12:22:34.969Z,44.04
2019-03-26T12:25:07.352Z,44.11
2019-03-26T12:27:39.020Z,44.19
2019-03-26T12:30:10.664Z,43.95
2019-03-26T12:32:42.655Z,44.25
2019-03-26T12:35:17.274Z,43.85
2019-03-26T12:37:48.942Z,43.71
2019-03-26T12:40:20.688Z,43.56
2019-03-26T12:42:52.556Z,43.10
2019-03-26T12:45:24.220Z,42.72
2019-03-26T12:47:55.873Z,42.40
2019-03-26T12:50:27.415Z,42.17
2019-03-26T12:52:58.780Z,41.87
2019-03-26T12:55:30.644Z,41.95
2019-03-26T12:58:01.981Z,41.87
2019-03-26T13:00:33.855Z,41.94
2019-03-26T13:03:05.513Z,41.74
2019-03-26T13:05:36.947Z,41.71
2019-03-26T13:08:08.810Z,41.81
2019-03-26T13:10:52.905Z,42.35
2019-03-26T13:13:13.785Z,41.59
2019-03-26T13:15:45.444Z,41.43
2019-03-26T13:18:17.001Z,42.25
2019-03-26T13:20:49.050Z,41.23
2019-03-26T13:23:20.617Z,41.15
2019-03-26T13:25:52.457Z,43.06
2019-03-26T13:28:24.035Z,42.54
2019-03-26T13:30:55.466Z,43.07
2019-03-26T13:33:27.131Z,42.27
2019-03-26T13:35:58.803Z,43.05
2019-03-26T13:38:30.647Z,42.75
2019-03-26T13:41:02.308Z,42.19
2019-03-26T13:43:34.186Z,41.79
2019-03-26T13:46:05.845Z,42.32
2019-03-26T13:48:37.484Z,42.16
2019-03-26T13:51:09.263Z,41.75
2019-03-26T13:53:40.918Z,41.87
2019-03-26T13:56:12.461Z,41.57
2019-03-26T13:58:44.126Z,41.42
2019-03-26T14:01:15.768Z,41.93
2019-03-26T14:03:47.632Z,41.60
2019-03-26T14:06:19.308Z,42.27
2019-03-26T14:08:51.069Z,42.39
2019-03-26T14:11:22.725Z,42.44
2019-03-26T14:13:54.463Z,42.62
2019-03-26T14:16:26.140Z,42.53
2019-03-26T14:18:58.106Z,42.51
2019-03-26T14:21:29.660Z,42.47
2019-03-26T14:24:01.315Z,42.42
2019-03-26T14:26:33.075Z,42.02
2019-03-26T14:29:04.631Z,42.63
2019-03-26T14:31:36.496Z,42.88
2019-03-26T14:34:08.078Z,42.54
2019-03-26T14:36:40.009Z,42.67
2019-03-26T14:39:11.598Z,43.90
2019-03-26T14:41:43.224Z,43.54
2019-03-26T14:44:14.866Z,43.74
2019-03-26T14:46:46.520Z,44.36
2019-03-26T14:49:18.400Z,44.26
2019-03-26T14:51:50.059Z,43.71
2019-03-26T14:54:21.907Z,44.58
2019-03-26T14:56:53.477Z,44.96
2019-03-26T14:59:25.034Z,45.00
2019-03-26T15:01:57.807Z,45.22
2019-03-26T15:04:29.274Z,45.33
2019-03-26T15:07:01.120Z,45.85
2019-03-26T15:09:32.802Z,45.92
2019-03-26T15:12:04.654Z,45.66
2019-03-26T15:14:36.314Z,45.47
2019-03-26T15:17:08.283Z,45.40
2019-03-26T15:19:40.052Z,45.07
2019-03-26T15:22:11.803Z,44.34
2019-03-26T15:24:44.634Z,44.28
2019-03-26T15:27:18.220Z,44.27
2019-03-26T15:29:49.643Z,44.52
2019-03-26T15:32:21.074Z,44.41
2019-03-26T15:34:52.649Z,44.04
2019-03-26T15:37:24.596Z,44.30
2019-03-26T15:39:56.168Z,44.69
2019-03-26T15:42:27.924Z,44.79
2019-03-26T15:44:59.611Z,44.35
2019-03-26T15:47:31.145Z,44.47
2019-03-26T15:50:02.804Z,44.30
2019-03-26T15:52:34.456Z,44.43
2019-03-26T15:55:06.826Z,44.64
2019-03-26T15:57:39.003Z,44.84
2019-03-26T16:00:11.525Z,45.06
2019-03-26T16:02:46.289Z,45.48
2019-03-26T16:05:18.190Z,44.84
2019-03-26T16:07:49.842Z,46.08
2019-03-26T16:10:22.319Z,47.30
2019-03-26T16:12:54.043Z,48.34
2019-03-26T16:15:25.707Z,49.22
2019-03-26T16:17:57.390Z,50.08
2019-03-26T16:20:30.672Z,51.05
2019-03-26T16:23:02.318Z,52.01
2019-03-26T16:25:34.282Z,52.75
2019-03-26T16:28:07.184Z,53.36
2019-03-26T16:30:38.942Z,54.31
2019-03-26T16:33:10.598Z,54.95
2019-03-26T16:35:42.444Z,55.54
2019-03-26T16:38:14.006Z,56.14
2019-03-26T16:40:45.676Z,56.60
2019-03-26T16:43:17.475Z,56.93
2019-03-26T16:45:49.080Z,57.31
2019-03-26T16:48:20.834Z,57.64
2019-03-26T16:50:52.648Z,57.84
2019-03-26T16:53:30.525Z,58.06
2019-03-26T16:56:02.181Z,58.26
2019-03-26T17:01:14.813Z,58.43
2019-03-26T17:03:46.656Z,58.65
2019-03-26T17:06:18.533Z,58.70
2019-03-26T17:08:50.102Z,58.74
2019-03-26T17:11:21.949Z,58.90
2019-03-26T17:13:53.505Z,59.08
2019-03-26T17:16:25.365Z,59.46
2019-03-26T17:18:57.124Z,59.67
2019-03-26T17:21:28.970Z,60.01
2019-03-26T17:24:01.485Z,60.62
2019-03-26T17:26:33.111Z,61.20
2019-03-26T17:29:05.091Z,61.70
2019-03-26T17:31:43.963Z,62.16
2019-03-26T17:34:15.884Z,62.51
2019-03-26T17:36:47.564Z,62.75
2019-03-26T17:39:19.392Z,62.60
2019-03-26T17:41:51.132Z,62.79
2019-03-26T17:44:22.719Z,62.64
2019-03-26T17:46:54.874Z,62.41
2019-03-26T17:49:26.512Z,62.39
2019-03-26T17:51:58.644Z,62.50
2019-03-26T17:54:30.355Z,62.32
2019-03-26T17:57:14.878Z,62.20
2019-03-26T17:59:48.114Z,62.32
2019-03-26T18:02:19.666Z,62.23
2019-03-26T18:04:51.982Z,61.91
2019-03-26T18:07:23.604Z,61.70
2019-03-26T18:09:55.355Z,61.74
2019-03-26T18:12:31.129Z,61.49
2019-03-26T18:15:00.357Z,61.35
2019-03-26T18:17:31.746Z,61.45
2019-03-26T18:20:03.921Z,61.38
2019-03-26T18:22:36.393Z,61.39
2019-03-26T18:25:08.945Z,61.37
2019-03-26T18:27:41.258Z,61.25
2019-03-26T18:30:12.803Z,60.92
2019-03-26T18:32:44.685Z,61.27
2019-03-26T18:35:16.442Z,61.44
2019-03-26T18:37:48.195Z,61.54
2019-03-26T18:40:20.004Z,61.57
2019-03-26T18:42:51.412Z,61.55
2019-03-26T18:45:22.938Z,61.68
2019-03-26T18:47:54.696Z,61.84
2019-03-26T18:50:26.365Z,61.90
2019-03-26T18:52:57.931Z,62.00
2019-03-26T18:55:29.705Z,61.49
2019-03-26T18:58:01.452Z,61.40
2019-03-26T19:00:38.143Z,61.43
2019-03-26T19:03:09.790Z,60.84
2019-03-26T19:05:41.447Z,60.61
2019-03-26T19:08:14.756Z,60.15
2019-03-26T19:10:46.602Z,60.33
2019-03-26T19:13:20.094Z,60.43
2019-03-26T19:15:51.236Z,60.51
2019-03-26T19:18:23.109Z,60.62
2019-03-26T19:21:02.036Z,60.45
2019-03-26T19:23:27.752Z,60.62
2019-03-26T19:25:59.942Z,60.69
2019-03-26T19:28:31.693Z,60.83
2019-03-26T19:31:05.680Z,60.89
2019-03-26T19:33:37.557Z,60.95
2019-03-26T19:36:09.406Z,61.19
2019-03-26T19:38:40.974Z,61.38
2019-03-26T19:41:13.144Z,61.61
2019-03-26T19:43:44.880Z,61.69
2019-03-26T19:46:16.454Z,61.77
2019-03-26T19:48:48.113Z,61.84
2019-03-26T19:51:19.957Z,61.91
2019-03-26T19:53:51.720Z,62.05
2019-03-26T19:56:23.576Z,62.14
2019-03-26T19:58:55.458Z,62.27
2019-03-26T20:01:27.032Z,62.32
2019-03-26T20:04:19.667Z,62.36
2019-03-26T20:06:52.134Z,62.43
2019-03-26T20:09:24.078Z,62.50
2019-03-26T20:11:55.569Z,62.62
2019-03-26T20:14:27.816Z,62.80
2019-03-26T20:16:59.585Z,62.84
2019-03-26T20:19:31.236Z,62.98
2019-03-26T20:22:02.976Z,62.98
2019-03-26T20:24:46.548Z,63.02
2019-03-26T20:27:18.086Z,63.08
2019-03-26T20:29:49.541Z,63.07
2019-03-26T20:32:21.460Z,63.23
2019-03-26T20:34:53.456Z,63.43
2019-03-26T20:37:27.068Z,63.83
2019-03-26T20:39:58.623Z,63.93
2019-03-26T20:42:30.403Z,64.06
2019-03-26T20:45:02.071Z,64.18
2019-03-26T20:47:33.691Z,64.29
2019-03-26T20:50:08.342Z,64.50
2019-03-26T20:52:39.868Z,64.63
2019-03-26T20:55:12.034Z,64.77
2019-03-26T20:57:45.437Z,64.93
2019-03-26T21:00:20.075Z,65.07
2019-03-26T21:02:51.618Z,65.12
2019-03-26T21:05:23.496Z,65.03
2019-03-26T21:07:56.176Z,65.00
2019-03-26T21:10:27.968Z,64.95
2019-03-26T21:12:59.387Z,65.04
2019-03-26T21:15:31.140Z,65.13
2019-03-26T21:18:03.000Z,65.14
2019-03-26T21:20:34.761Z,65.20
2019-03-26T21:23:06.722Z,65.23
2019-03-26T21:25:38.471Z,65.28
2019-03-26T21:28:09.933Z,65.27
2019-03-26T21:30:41.508Z,65.38
2019-03-26T21:33:13.023Z,65.57
2019-03-26T21:35:44.786Z,65.64
2019-03-26T21:38:16.541Z,65.64
2019-03-26T21:40:48.511Z,65.64
2019-03-26T21:43:21.947Z,65.67
2019-03-26T21:45:53.576Z,65.78
2019-03-26T21:48:25.774Z,65.91
2019-03-26T21:50:57.736Z,66.07
2019-03-26T21:53:29.262Z,66.21
2019-03-26T21:56:06.829Z,66.44
2019-03-26T21:58:34.518Z,66.60
2019-03-26T22:01:05.974Z,66.79
2019-03-26T22:03:37.802Z,66.99
2019-03-26T22:06:09.204Z,67.10
2019-03-26T22:08:41.573Z,67.16
2019-03-26T22:11:13.151Z,67.27
2019-03-26T22:13:44.472Z,67.38
2019-03-26T22:16:15.954Z,67.42
2019-03-26T22:18:47.786Z,67.59
2019-03-26T22:21:19.667Z,67.76
2019-03-26T22:23:51.180Z,68.05
2019-03-26T22:26:22.729Z,68.22
2019-03-26T22:28:54.299Z,68.44
2019-03-26T22:31:25.859Z,68.67
2019-03-26T22:33:57.612Z,68.83
2019-03-26T22:36:29.258Z,69.03
2019-03-26T22:39:01.035Z,69.27
2019-03-26T22:41:34.237Z,69.43
2019-03-26T22:44:05.677Z,69.49
2019-03-26T22:46:37.528Z,69.64
2019-03-26T22:49:09.208Z,69.82
2019-03-26T22:51:40.759Z,69.94
2019-03-26T22:54:12.615Z,70.11
2019-03-26T22:56:44.383Z,70.32
2019-03-26T22:59:16.017Z,70.50
2019-03-26T23:01:47.878Z,70.74
2019-03-26T23:04:20.095Z,70.97
2019-03-26T23:06:51.612Z,71.19
2019-03-26T23:09:23.601Z,71.46
2019-03-26T23:11:55.037Z,71.66
2019-03-26T23:14:27.924Z,71.87
2019-03-26T23:16:59.485Z,72.04
2019-03-26T23:19:31.240Z,72.24
2019-03-26T23:22:02.790Z,72.42
2019-03-26T23:24:34.546Z,72.56
2019-03-26T23:27:06.206Z,72.75
2019-03-26T23:29:39.254Z,72.95
2019-03-26T23:32:11.537Z,73.21
2019-03-26T23:34:43.305Z,73.49
2019-03-26T23:37:15.295Z,73.77
2019-03-26T23:39:47.132Z,74.01
2019-03-26T23:42:18.711Z,74.21
2019-03-26T23:44:58.195Z,74.38
2019-03-26T23:47:23.693Z,74.49
2019-03-26T23:49:55.313Z,74.61
2019-03-26T23:52:27.073Z,74.74
2019-03-26T23:54:58.612Z,74.91
2019-03-26T23:57:30.981Z,75.01
